Latest Coastal Weather Observations for Walpole North

IDW60701

Issued at 6:13 am WST Thursday 23 November 2017 (issued every 10 minutes, with the page automatically refreshed every 10 minutes)

About coastal observations | Map of coastal stations | Coastal observations for WA | Marine services | Other Formats
Station Details ID: 009998 Name: NORTH WALPOLE Lat: -34.95 Lon: 116.72 Height: 73.0 m
Data from the previous 72 hours. | See also: Recent months at Walpole North
Date/Time
WST
Temp
°C
Wind Pressure Rain since
9am
mm
Weather Cloud Vis
km
Sea
Height
m
Swell
Dir  Spd
kts
Gust
kts
hPa Trend Height
m
Period
s
Dir
23/06:00am 9.7 E 4 5 1021.1 - 0.0 - - - - - - -
23/05:30am 8.5 E 4 4 1021.0 - 0.0 - - - - - - -
23/05:00am 8.4 ENE 4 4 1020.8 - 0.0 - - - - - - -
23/04:30am 8.6 ENE 4 5 1020.5 - 0.0 - - - - - - -
23/04:00am 8.9 ENE 5 7 1020.4 - 0.0 - - - - - - -
23/03:30am 9.0 E 4 5 1020.3 - 0.0 - - - - - - -
23/03:00am 9.5 ENE 5 6 1020.4 - 0.0 - - - - - - -
23/02:30am 9.7 ENE 4 5 1020.7 - 0.0 - - - - - - -
23/02:00am 10.0 ENE 5 7 1020.7 - 0.0 - - - - - - -
23/01:30am 10.2 ENE 5 6 1020.7 - 0.0 - - - - - - -
23/01:00am 10.7 ENE 5 7 1020.9 - 0.0 - - - - - - -
23/12:30am 10.5 ENE 5 6 1021.2 - 0.0 - - - - - - -
23/12:00am 11.0 ENE 5 8 1021.3 - 0.0 - - - - - - -
 
Date/Time
WST
Temp
°C
Wind Pressure Rain since
9am
mm
Weather Cloud Vis
km
Sea
Height
m
Swell
Dir  Spd
kts
Gust
kts
hPa Trend Height
m
Period
s
Dir
22/11:30pm 11.2 E 5 7 1021.5 - 0.0 - - - - - - -
22/11:00pm 11.8 E 6 9 1021.8 - 0.0 - - - - - - -
22/10:30pm 12.0 E 7 11 1022.0 - 0.0 - - - - - - -
22/10:00pm 12.2 E 6 9 1022.1 - 0.0 - - - - - - -
22/09:30pm 12.7 E 8 12 1022.1 - 0.0 - - - - - - -
22/09:00pm 13.0 E 7 11 1022.1 - 0.0 - - - - - - -
22/08:30pm 13.3 ESE 7 11 1021.8 - 0.0 - - - - - - -
22/08:00pm 13.3 ESE 8 11 1021.6 - 0.0 - - - - - - -
22/07:30pm 13.5 ESE 8 11 1021.6 - 0.0 - - - - - - -
22/07:00pm 14.2 ESE 10 15 1021.4 - 0.0 - - - - - - -
22/06:30pm 14.6 ESE 10 14 1021.4 - 0.0 - - - - - - -
22/06:00pm 15.2 ESE 12 18 1021.1 - 0.0 - - - - - - -
22/05:30pm 15.7 ESE 13 19 1020.9 - 0.0 - - - - - - -
22/05:00pm 16.1 ESE 11 17 1020.8 - 0.0 - - - - - - -
22/04:30pm 16.5 SE 11 18 1020.7 - 0.0 - - - - - - -
22/04:00pm 16.6 ESE 12 18 1020.9 - 0.0 - - - - - - -
22/03:30pm 16.9 ESE 11 17 1020.8 - 0.0 - - - - - - -
22/03:00pm 16.7 SSE 9 14 1020.8 - 0.0 - - - - - - -
22/02:30pm 17.2 SE 10 16 1020.9 - 0.0 - - - - - - -
22/02:00pm 18.4 SSE 8 14 1021.0 - 0.0 - - - - - - -
22/01:30pm 18.7 S 7 14 1021.2 - 0.0 - - - - - - -
22/01:00pm 18.0 SSE 8 14 1021.4 - 0.0 - - - - - - -
22/12:30pm 19.0 SSE 10 17 1021.5 - 0.0 - - - - - - -
22/12:00pm 19.6 SSE 8 16 1021.8 - 0.0 - - - - - - -
22/11:30am 19.2 S 9 18 1022.1 - 0.0 - - - - - - -
22/11:00am 19.3 S 6 12 1022.3 - 0.0 - - - - - - -
22/10:30am 18.8 SE 5 12 1022.5 - 0.0 - - - - - - -
22/10:00am 18.7 ESE 7 11 1023.0 - 0.0 - - - - - - -
22/09:30am 18.5 E 5 7 1023.0 - 0.0 - - - - - - -
22/09:00am 17.3 E 7 11 1023.1 - 0.0 - - - - - - -
22/08:30am 16.5 E 7 13 1023.3 - 0.0 - - - - - - -
22/08:00am 16.1 ENE 6 11 1023.7 - 0.0 - - - - - - -
22/07:30am 15.1 ENE 6 9 1023.5 - 0.0 - - - - - - -
22/07:00am 12.6 NE 1 4 1023.5 - 0.0 - - - - - - -
22/06:30am 10.5 CALM 0 0 1023.4 - 0.0 - - - - - - -
22/06:00am 9.4 NE 1 4 1023.3 - 0.0 - - - - - - -
22/05:30am 7.7 CALM 0 0 1023.2 - 0.0 - - - - - - -
22/05:00am 7.7 CALM 0 0 1023.0 - 0.0 - - - - - - -
22/04:30am 7.7 CALM 0 0 1022.8 - 0.0 - - - - - - -
22/04:00am 7.9 CALM 0 0 1022.7 - 0.0 - - - - - - -
22/03:30am 8.0 NE 1 3 1022.5 - 0.0 - - - - - - -
22/03:00am 8.2 CALM 0 0 1022.5 - 0.0 - - - - - - -
22/02:30am 8.7 CALM 0 0 1022.2 - 0.0 - - - - - - -
22/02:00am 9.1 NE 3 4 1022.4 - 0.0 - - - - - - -
22/01:30am 9.6 E 3 4 1022.6 - 0.0 - - - - - - -
22/01:00am 10.1 E 2 5 1022.8 - 0.0 - - - - - - -
22/12:30am 10.2 E 1 3 1022.9 - 0.0 - - - - - - -
22/12:00am 11.1 E 4 5 1023.0 - 0.0 - - - - - - -
 
Date/Time
WST
Temp
°C
Wind Pressure Rain since
9am
mm
Weather Cloud Vis
km
Sea
Height
m
Swell
Dir  Spd
kts
Gust
kts
hPa Trend Height
m
Period
s
Dir
21/11:30pm 11.4 E 5 7 1023.1 - 0.0 - - - - - - -
21/11:00pm 11.4 E 5 6 1023.2 - 0.0 - - - - - - -
21/10:30pm 11.9 ESE 6 8 1023.2 - 0.0 - - - - - - -
21/10:00pm 11.9 E 5 8 1023.5 - 0.0 - - - - - - -
21/09:30pm 11.8 E 5 7 1023.6 - 0.0 - - - - - - -
21/09:00pm 12.3 ESE 6 9 1023.5 - 0.0 - - - - - - -
21/08:30pm 12.6 ESE 5 6 1023.4 - 0.0 - - - - - - -
21/08:00pm 12.9 ESE 5 7 1022.9 - 0.0 - - - - - - -
21/07:30pm 13.1 ESE 5 7 1022.8 - 0.0 - - - - - - -
21/07:00pm 14.0 SE 5 8 1022.8 - 0.0 - - - - - - -
21/06:30pm 15.4 SSE 7 11 1022.3 - 0.0 - - - - - - -
21/06:00pm 15.4 SE 7 12 1022.0 - 0.0 - - - - - - -
21/05:30pm 15.6 SSE 7 14 1021.6 - 0.0 - - - - - - -
21/05:00pm 16.8 SSE 7 13 1021.2 - 0.0 - - - - - - -
21/04:30pm 17.3 SSE 8 13 1021.2 - 0.0 - - - - - - -
21/04:00pm 17.5 SSE 7 14 1021.2 - 0.0 - - - - - - -
21/03:30pm 17.7 SSE 9 16 1021.0 - 0.0 - - - - - - -
21/03:00pm 18.4 S 7 13 1021.0 - 0.0 - - - - - - -
21/02:30pm 17.9 S 7 13 1021.0 - 0.0 - - - - - - -
21/02:00pm 18.6 S 7 12 1021.2 - 0.0 - - - - - - -
21/01:30pm 18.6 S 7 14 1020.9 - 0.0 - - - - - - -
21/01:00pm 17.4 SSE 7 13 1020.7 - 0.0 - - - - - - -
21/12:30pm 17.6 SSE 7 14 1020.8 - 0.0 - - - - - - -
21/12:00pm 17.9 S 8 13 1020.8 - 0.0 - - - - - - -
21/11:30am 18.5 S 8 15 1020.8 - 0.0 - - - - - - -
21/11:00am 17.6 SSE 7 12 1020.8 - 0.0 - - - - - - -
21/10:30am 17.7 S 8 13 1021.0 - 0.0 - - - - - - -
21/10:00am 17.8 S 8 15 1020.9 - 0.0 - - - - - - -
21/09:30am 17.1 S 7 14 1020.8 - 0.0 - - - - - - -
21/09:00am 17.3 S 7 11 1020.7 - 0.8 - - - - - - -
21/08:30am 16.8 S 7 12 1020.5 - 0.8 - - - - - - -
21/08:00am 15.5 SSW 7 13 1020.5 - 0.8 - - - - - - -
21/07:30am 16.5 S 6 14 1020.1 - 0.8 - - - - - - -
21/07:00am 16.0 SSW 6 10 1019.6 - 0.8 - - - - - - -
21/06:30am 14.3 SW 2 4 1019.3 - 0.8 - - - - - - -
21/06:00am 12.3 SW 2 4 1018.8 - 0.8 - - - - - - -
21/05:30am 11.9 SSW 3 5 1018.4 - 0.8 - - - - - - -
21/05:00am 12.4 SW 3 6 1018.1 - 0.8 - - - - - - -
21/04:30am 12.3 SW 3 5 1017.7 - 0.8 - - - - - - -
21/04:00am 12.5 SSW 4 7 1017.4 - 0.8 - - - - - - -
21/03:30am 12.6 SW 3 6 1017.1 - 0.8 - - - - - - -
21/03:00am 12.6 SW 5 8 1016.7 - 0.8 - - - - - - -
21/02:30am 12.5 WSW 3 4 1016.5 - 0.8 - - - - - - -
21/02:00am 12.4 WSW 4 6 1016.4 - 0.8 - - - - - - -
21/01:30am 12.6 WSW 4 5 1016.3 - 0.8 - - - - - - -
21/01:00am 13.2 SW 4 6 1016.1 - 0.8 - - - - - - -
21/12:30am 13.7 SW 5 7 1016.3 - 0.8 - - - - - - -
21/12:00am 13.5 SW 5 7 1016.4 - 0.8 Recent precip. - - - - - -
 
Date/Time
WST
Temp
°C
Wind Pressure Rain since
9am
mm
Weather Cloud Vis
km
Sea
Height
m
Swell
Dir  Spd
kts
Gust
kts
hPa Trend Height
m
Period
s
Dir
20/11:30pm 13.5 SW 5 8 1016.5 - 0.8 - - - - - - -
20/11:00pm 13.8 SSW 8 11 1016.4 - 0.6 - - - - - - -
20/10:30pm 13.9 W 3 5 1016.4 - 0.6 - - - - - - -
20/10:00pm 13.9 SSW 1 3 1016.4 - 0.6 - - - - - - -
20/09:30pm 14.5 CALM 0 0 1016.5 - 0.6 - - - - - - -
20/09:00pm 14.5 SSW 4 5 1016.4 - 0.6 - - - - - - -
20/08:30pm 15.0 SW 4 6 1016.1 - 0.6 - - - - - - -
20/08:00pm 15.0 SSW 3 5 1015.7 - 0.6 - - - - - - -
20/07:30pm 14.8 SSW 4 6 1015.3 - 0.6 - - - - - - -
20/07:00pm 15.6 SSW 5 8 1015.0 - 0.4 - - - - - - -
20/06:30pm 15.8 SSW 6 10 1014.8 - 0.4 - - - - - - -
20/06:00pm 16.0 SSW 9 13 1014.5 - 0.4 - - - - - - -
20/05:30pm 16.9 SSW 7 11 1014.2 - 0.4 - - - - - - -
20/05:00pm 17.1 SSW 7 11 1013.8 - 0.4 - - - - - - -
20/04:30pm 17.0 SW 7 13 1013.8 - 0.4 - - - - - - -
20/04:00pm 16.6 SW 6 11 1013.7 - 0.4 - - - - - - -
20/03:30pm 16.6 W 5 8 1013.2 - 0.4 - - - - - - -
20/03:00pm 17.1 WSW 11 17 1013.2 - 0.0 - - - - - - -
20/02:30pm 19.8 W 11 19 1012.7 - 0.0 - - - - - - -
20/02:00pm 20.8 W 11 18 1012.2 - 0.0 - - - - - - -
20/01:30pm 21.5 W 11 22 1012.1 - 0.0 - - - - - - -
20/01:00pm 21.9 W 11 18 1012.0 - 0.0 - - - - - - -
20/12:30pm 21.3 W 12 18 1012.0 - 0.0 - - - - - - -
20/12:00pm 21.2 W 12 21 1012.1 - 0.0 - - - - - - -
20/11:30am 20.4 WNW 11 15 1012.1 - 0.0 - - - - - - -
20/11:00am 21.1 W 10 19 1012.2 - 0.0 - - - - - - -
20/10:30am 20.0 WNW 9 15 1012.4 - 0.0 - - - - - - -
20/10:00am 20.8 W 8 13 1012.4 - 0.0 - - - - - - -
20/09:30am 20.0 W 10 17 1012.6 - 0.0 - - - - - - -
20/09:00am 19.3 WNW 10 14 1012.6 - 0.0 - - - - - - -
20/08:30am 18.4 NW 9 14 1012.7 - 0.0 - - - - - - -
20/08:00am 17.4 NW 5 9 1012.6 - 0.0 - - - - - - -
20/07:30am 15.9 NNW 5 7 1012.7 - 0.0 - - - - - - -
20/07:00am 14.8 NW 6 8 1012.6 - 0.0 - - - - - - -
20/06:30am 14.2 NW 3 5 1012.4 - 0.0 - - - - - - -

Other Formats:

Comma delimited format used in spreadsheet applications
http://www.bom.gov.au/fwo/IDW60701/IDW60701.95647.axf

JavaScript Object Notation format (JSON) in row-major order
http://www.bom.gov.au/fwo/IDW60701/IDW60701.95647.json